sensor_id;sensor_type;location;lat;lon;timestamp;P1;durP1;ratioP1;P2;durP2;ratioP2
20828;SDS011;10575;50.124;8.582;2023-03-01T00:01:09;29.48;;;13.00;;
20828;SDS011;10575;50.124;8.582;2023-03-01T00:03:37;25.80;;;13.50;;
20828;SDS011;10575;50.124;8.582;2023-03-01T00:06:03;24.55;;;12.80;;
20828;SDS011;10575;50.124;8.582;2023-03-01T00:08:29;33.10;;;13.32;;
20828;SDS011;10575;50.124;8.582;2023-03-01T00:11:03;21.92;;;11.43;;
20828;SDS011;10575;50.124;8.582;2023-03-01T00:13:34;24.13;;;12.50;;
20828;SDS011;10575;50.124;8.582;2023-03-01T00:16:04;22.45;;;10.98;;
20828;SDS011;10575;50.124;8.582;2023-03-01T00:18:31;25.80;;;12.07;;
20828;SDS011;10575;50.124;8.582;2023-03-01T00:20:57;24.75;;;12.18;;
20828;SDS011;10575;50.124;8.582;2023-03-01T00:23:23;27.20;;;12.00;;
20828;SDS011;10575;50.124;8.582;2023-03-01T00:25:49;27.60;;;12.52;;
20828;SDS011;10575;50.124;8.582;2023-03-01T00:28:15;29.90;;;12.05;;
20828;SDS011;10575;50.124;8.582;2023-03-01T00:30:41;22.95;;;11.93;;
20828;SDS011;10575;50.124;8.582;2023-03-01T00:33:07;24.13;;;12.35;;
20828;SDS011;10575;50.124;8.582;2023-03-01T00:35:33;24.50;;;12.18;;
20828;SDS011;10575;50.124;8.582;2023-03-01T00:37:59;25.40;;;12.07;;
20828;SDS011;10575;50.124;8.582;2023-03-01T00:40:25;26.70;;;13.13;;
20828;SDS011;10575;50.124;8.582;2023-03-01T00:42:51;25.83;;;12.77;;
20828;SDS011;10575;50.124;8.582;2023-03-01T00:45:17;27.42;;;12.52;;
20828;SDS011;10575;50.124;8.582;2023-03-01T00:47:42;26.50;;;12.68;;
20828;SDS011;10575;50.124;8.582;2023-03-01T00:50:08;22.90;;;11.02;;
20828;SDS011;10575;50.124;8.582;2023-03-01T00:52:35;31.88;;;13.15;;
20828;SDS011;10575;50.124;8.582;2023-03-01T00:55:01;26.20;;;13.10;;
20828;SDS011;10575;50.124;8.582;2023-03-01T00:57:27;31.92;;;13.00;;
20828;SDS011;10575;50.124;8.582;2023-03-01T00:59:53;25.17;;;12.00;;
20828;SDS011;10575;50.124;8.582;2023-03-01T01:02:19;28.75;;;12.90;;
20828;SDS011;10575;50.124;8.582;2023-03-01T01:04:45;25.42;;;12.02;;
20828;SDS011;10575;50.124;8.582;2023-03-01T01:07:11;26.42;;;13.10;;
20828;SDS011;10575;50.124;8.582;2023-03-01T01:09:37;25.67;;;12.52;;
20828;SDS011;10575;50.124;8.582;2023-03-01T01:12:02;27.38;;;12.75;;
20828;SDS011;10575;50.124;8.582;2023-03-01T01:14:28;25.55;;;11.98;;
20828;SDS011;10575;50.124;8.582;2023-03-01T01:16:54;28.58;;;13.07;;
20828;SDS011;10575;50.124;8.582;2023-03-01T01:19:20;23.25;;;11.25;;
20828;SDS011;10575;50.124;8.582;2023-03-01T01:21:46;26.08;;;12.80;;
20828;SDS011;10575;50.124;8.582;2023-03-01T01:24:12;26.35;;;12.38;;
20828;SDS011;10575;50.124;8.582;2023-03-01T01:26:39;26.38;;;12.70;;
20828;SDS011;10575;50.124;8.582;2023-03-01T01:29:05;26.48;;;12.93;;
20828;SDS011;10575;50.124;8.582;2023-03-01T01:31:32;28.67;;;12.43;;
20828;SDS011;10575;50.124;8.582;2023-03-01T01:34:00;30.35;;;12.48;;
20828;SDS011;10575;50.124;8.582;2023-03-01T01:36:27;27.00;;;12.43;;
20828;SDS011;10575;50.124;8.582;2023-03-01T01:38:52;32.45;;;13.13;;
20828;SDS011;10575;50.124;8.582;2023-03-01T01:41:18;30.80;;;14.02;;
20828;SDS011;10575;50.124;8.582;2023-03-01T01:43:49;31.95;;;13.30;;
20828;SDS011;10575;50.124;8.582;2023-03-01T01:46:35;27.60;;;12.98;;
20828;SDS011;10575;50.124;8.582;2023-03-01T01:49:27;26.65;;;13.55;;
20828;SDS011;10575;50.124;8.582;2023-03-01T01:52:02;28.83;;;12.93;;
20828;SDS011;10575;50.124;8.582;2023-03-01T01:57:06;28.45;;;12.95;;
20828;SDS011;10575;50.124;8.582;2023-03-01T01:59:36;26.10;;;12.93;;
20828;SDS011;10575;50.124;8.582;2023-03-01T02:02:03;24.73;;;12.18;;
20828;SDS011;10575;50.124;8.582;2023-03-01T02:04:29;27.88;;;13.43;;
20828;SDS011;10575;50.124;8.582;2023-03-01T02:07:19;29.42;;;13.13;;
20828;SDS011;10575;50.124;8.582;2023-03-01T02:09:47;33.83;;;13.38;;
20828;SDS011;10575;50.124;8.582;2023-03-01T02:12:16;29.63;;;13.73;;
20828;SDS011;10575;50.124;8.582;2023-03-01T02:14:44;29.98;;;13.63;;
20828;SDS011;10575;50.124;8.582;2023-03-01T02:17:10;27.58;;;12.70;;
20828;SDS011;10575;50.124;8.582;2023-03-01T02:19:41;27.10;;;13.23;;
20828;SDS011;10575;50.124;8.582;2023-03-01T02:22:31;25.20;;;13.15;;
20828;SDS011;10575;50.124;8.582;2023-03-01T02:27:40;30.30;;;13.70;;
20828;SDS011;10575;50.124;8.582;2023-03-01T02:30:28;32.35;;;13.75;;
20828;SDS011;10575;50.124;8.582;2023-03-01T02:32:56;32.72;;;14.10;;
20828;SDS011;10575;50.124;8.582;2023-03-01T02:35:27;27.85;;;12.45;;
20828;SDS011;10575;50.124;8.582;2023-03-01T02:37:56;25.40;;;12.68;;
20828;SDS011;10575;50.124;8.582;2023-03-01T02:40:25;25.08;;;12.27;;
20828;SDS011;10575;50.124;8.582;2023-03-01T02:42:53;25.95;;;12.85;;
20828;SDS011;10575;50.124;8.582;2023-03-01T02:45:21;27.90;;;13.18;;
20828;SDS011;10575;50.124;8.582;2023-03-01T02:47:48;27.30;;;13.32;;
20828;SDS011;10575;50.124;8.582;2023-03-01T02:52:56;29.60;;;13.57;;
20828;SDS011;10575;50.124;8.582;2023-03-01T02:55:26;26.70;;;13.50;;
20828;SDS011;10575;50.124;8.582;2023-03-01T02:57:52;32.10;;;13.88;;
20828;SDS011;10575;50.124;8.582;2023-03-01T03:00:21;28.63;;;13.50;;
20828;SDS011;10575;50.124;8.582;2023-03-01T03:02:58;29.90;;;13.45;;
20828;SDS011;10575;50.124;8.582;2023-03-01T03:05:25;26.52;;;13.60;;
20828;SDS011;10575;50.124;8.582;2023-03-01T03:07:53;30.23;;;13.40;;
20828;SDS011;10575;50.124;8.582;2023-03-01T03:10:20;29.88;;;14.55;;
20828;SDS011;10575;50.124;8.582;2023-03-01T03:12:52;28.50;;;13.30;;
20828;SDS011;10575;50.124;8.582;2023-03-01T03:15:19;29.88;;;13.25;;
20828;SDS011;10575;50.124;8.582;2023-03-01T03:17:46;29.08;;;14.02;;
20828;SDS011;10575;50.124;8.582;2023-03-01T03:20:12;28.00;;;13.02;;
20828;SDS011;10575;50.124;8.582;2023-03-01T03:22:43;31.63;;;14.00;;
20828;SDS011;10575;50.124;8.582;2023-03-01T03:25:13;27.42;;;13.63;;
20828;SDS011;10575;50.124;8.582;2023-03-01T03:27:40;34.75;;;14.55;;
20828;SDS011;10575;50.124;8.582;2023-03-01T03:30:08;32.92;;;14.75;;
20828;SDS011;10575;50.124;8.582;2023-03-01T03:32:37;31.83;;;13.90;;
20828;SDS011;10575;50.124;8.582;2023-03-01T03:35:07;33.80;;;13.93;;
20828;SDS011;10575;50.124;8.582;2023-03-01T03:37:37;33.55;;;14.75;;
20828;SDS011;10575;50.124;8.582;2023-03-01T03:40:23;36.75;;;16.00;;
20828;SDS011;10575;50.124;8.582;2023-03-01T03:42:49;30.83;;;14.20;;
20828;SDS011;10575;50.124;8.582;2023-03-01T03:45:15;28.70;;;14.23;;
20828;SDS011;10575;50.124;8.582;2023-03-01T03:47:41;33.00;;;15.10;;
20828;SDS011;10575;50.124;8.582;2023-03-01T03:50:07;29.23;;;14.27;;
20828;SDS011;10575;50.124;8.582;2023-03-01T03:52:34;30.02;;;13.52;;
20828;SDS011;10575;50.124;8.582;2023-03-01T03:55:00;28.30;;;14.18;;
20828;SDS011;10575;50.124;8.582;2023-03-01T03:57:25;27.00;;;13.90;;
20828;SDS011;10575;50.124;8.582;2023-03-01T03:59:51;30.98;;;14.02;;
20828;SDS011;10575;50.124;8.582;2023-03-01T04:02:16;34.05;;;15.15;;
20828;SDS011;10575;50.124;8.582;2023-03-01T04:04:46;30.70;;;14.48;;
20828;SDS011;10575;50.124;8.582;2023-03-01T04:07:14;37.17;;;14.05;;
20828;SDS011;10575;50.124;8.582;2023-03-01T04:09:41;30.92;;;13.73;;
20828;SDS011;10575;50.124;8.582;2023-03-01T04:12:08;37.40;;;16.10;;
20828;SDS011;10575;50.124;8.582;2023-03-01T04:14:34;39.30;;;14.18;;
20828;SDS011;10575;50.124;8.582;2023-03-01T04:17:00;29.77;;;15.25;;
20828;SDS011;10575;50.124;8.582;2023-03-01T04:19:26;35.80;;;15.15;;
20828;SDS011;10575;50.124;8.582;2023-03-01T04:21:52;29.63;;;14.27;;
20828;SDS011;10575;50.124;8.582;2023-03-01T04:24:18;33.88;;;14.77;;
20828;SDS011;10575;50.124;8.582;2023-03-01T04:26:43;32.92;;;15.07;;
20828;SDS011;10575;50.124;8.582;2023-03-01T04:29:09;36.90;;;16.70;;
20828;SDS011;10575;50.124;8.582;2023-03-01T04:31:34;33.35;;;14.93;;
20828;SDS011;10575;50.124;8.582;2023-03-01T04:34:00;32.35;;;14.52;;
20828;SDS011;10575;50.124;8.582;2023-03-01T04:36:26;34.03;;;14.75;;
20828;SDS011;10575;50.124;8.582;2023-03-01T04:38:53;37.10;;;16.15;;
20828;SDS011;10575;50.124;8.582;2023-03-01T04:41:21;34.53;;;15.25;;
20828;SDS011;10575;50.124;8.582;2023-03-01T04:43:48;34.55;;;15.63;;
20828;SDS011;10575;50.124;8.582;2023-03-01T04:46:15;39.45;;;15.48;;
20828;SDS011;10575;50.124;8.582;2023-03-01T04:48:44;30.90;;;15.15;;
20828;SDS011;10575;50.124;8.582;2023-03-01T04:51:11;36.38;;;15.65;;
20828;SDS011;10575;50.124;8.582;2023-03-01T04:53:38;38.15;;;16.17;;
20828;SDS011;10575;50.124;8.582;2023-03-01T04:56:05;34.28;;;15.65;;
20828;SDS011;10575;50.124;8.582;2023-03-01T04:58:31;32.58;;;15.40;;
20828;SDS011;10575;50.124;8.582;2023-03-01T05:00:57;32.80;;;15.15;;
20828;SDS011;10575;50.124;8.582;2023-03-01T05:03:22;33.42;;;15.55;;
20828;SDS011;10575;50.124;8.582;2023-03-01T05:05:49;35.42;;;15.60;;
20828;SDS011;10575;50.124;8.582;2023-03-01T05:08:16;40.20;;;15.48;;
20828;SDS011;10575;50.124;8.582;2023-03-01T05:10:52;31.25;;;14.70;;
20828;SDS011;10575;50.124;8.582;2023-03-01T05:13:19;31.05;;;14.88;;
20828;SDS011;10575;50.124;8.582;2023-03-01T05:15:49;35.58;;;15.68;;
20828;SDS011;10575;50.124;8.582;2023-03-01T05:18:20;37.42;;;15.73;;
20828;SDS011;10575;50.124;8.582;2023-03-01T05:20:45;37.08;;;15.68;;
20828;SDS011;10575;50.124;8.582;2023-03-01T05:23:12;36.38;;;15.85;;
20828;SDS011;10575;50.124;8.582;2023-03-01T05:25:37;31.38;;;14.38;;
20828;SDS011;10575;50.124;8.582;2023-03-01T05:28:05;37.05;;;16.38;;
20828;SDS011;10575;50.124;8.582;2023-03-01T05:30:35;35.38;;;15.07;;
20828;SDS011;10575;50.124;8.582;2023-03-01T05:33:00;35.97;;;15.32;;
20828;SDS011;10575;50.124;8.582;2023-03-01T05:35:26;35.50;;;16.15;;
20828;SDS011;10575;50.124;8.582;2023-03-01T05:37:53;33.97;;;15.93;;
20828;SDS011;10575;50.124;8.582;2023-03-01T05:40:20;39.58;;;16.35;;
20828;SDS011;10575;50.124;8.582;2023-03-01T05:42:52;32.83;;;15.88;;
20828;SDS011;10575;50.124;8.582;2023-03-01T05:45:19;38.00;;;15.15;;
20828;SDS011;10575;50.124;8.582;2023-03-01T05:47:46;33.45;;;14.43;;
20828;SDS011;10575;50.124;8.582;2023-03-01T05:50:17;36.72;;;16.23;;
20828;SDS011;10575;50.124;8.582;2023-03-01T05:52:45;34.38;;;16.27;;
20828;SDS011;10575;50.124;8.582;2023-03-01T05:55:13;33.25;;;14.88;;
20828;SDS011;10575;50.124;8.582;2023-03-01T05:57:39;38.45;;;15.98;;
20828;SDS011;10575;50.124;8.582;2023-03-01T06:00:05;38.05;;;15.70;;
20828;SDS011;10575;50.124;8.582;2023-03-01T06:02:32;32.92;;;14.63;;
20828;SDS011;10575;50.124;8.582;2023-03-01T06:04:57;31.08;;;14.13;;
20828;SDS011;10575;50.124;8.582;2023-03-01T06:07:23;35.88;;;15.68;;
20828;SDS011;10575;50.124;8.582;2023-03-01T06:09:49;32.50;;;14.45;;
20828;SDS011;10575;50.124;8.582;2023-03-01T06:12:14;36.33;;;14.52;;
20828;SDS011;10575;50.124;8.582;2023-03-01T06:14:39;37.30;;;15.20;;
20828;SDS011;10575;50.124;8.582;2023-03-01T06:17:05;28.13;;;14.48;;
20828;SDS011;10575;50.124;8.582;2023-03-01T06:19:30;32.53;;;15.48;;
20828;SDS011;10575;50.124;8.582;2023-03-01T06:21:56;33.10;;;14.43;;
20828;SDS011;10575;50.124;8.582;2023-03-01T06:24:21;32.05;;;14.18;;
20828;SDS011;10575;50.124;8.582;2023-03-01T06:26:47;32.90;;;14.32;;
20828;SDS011;10575;50.124;8.582;2023-03-01T06:29:13;28.95;;;14.13;;
20828;SDS011;10575;50.124;8.582;2023-03-01T06:31:39;34.67;;;14.90;;
20828;SDS011;10575;50.124;8.582;2023-03-01T06:34:05;33.70;;;15.00;;
20828;SDS011;10575;50.124;8.582;2023-03-01T06:36:30;34.28;;;15.20;;
20828;SDS011;10575;50.124;8.582;2023-03-01T06:38:56;30.45;;;15.02;;
20828;SDS011;10575;50.124;8.582;2023-03-01T06:41:21;34.22;;;15.05;;
20828;SDS011;10575;50.124;8.582;2023-03-01T06:43:47;31.83;;;14.93;;
20828;SDS011;10575;50.124;8.582;2023-03-01T06:46:12;33.80;;;15.73;;
20828;SDS011;10575;50.124;8.582;2023-03-01T06:48:38;35.65;;;14.90;;
20828;SDS011;10575;50.124;8.582;2023-03-01T06:51:03;35.30;;;14.77;;
20828;SDS011;10575;50.124;8.582;2023-03-01T06:53:29;34.70;;;15.00;;
20828;SDS011;10575;50.124;8.582;2023-03-01T06:55:55;32.70;;;14.45;;
20828;SDS011;10575;50.124;8.582;2023-03-01T06:58:22;35.88;;;15.05;;
20828;SDS011;10575;50.124;8.582;2023-03-01T07:00:48;35.65;;;14.98;;
20828;SDS011;10575;50.124;8.582;2023-03-01T07:03:13;34.78;;;14.68;;
20828;SDS011;10575;50.124;8.582;2023-03-01T07:05:39;32.13;;;14.73;;
20828;SDS011;10575;50.124;8.582;2023-03-01T07:08:05;32.17;;;14.65;;
20828;SDS011;10575;50.124;8.582;2023-03-01T07:10:30;31.67;;;14.93;;
20828;SDS011;10575;50.124;8.582;2023-03-01T07:12:56;27.45;;;13.70;;
20828;SDS011;10575;50.124;8.582;2023-03-01T07:15:23;30.33;;;13.57;;
20828;SDS011;10575;50.124;8.582;2023-03-01T07:17:49;31.98;;;14.57;;
20828;SDS011;10575;50.124;8.582;2023-03-01T07:20:16;36.08;;;15.10;;
20828;SDS011;10575;50.124;8.582;2023-03-01T07:22:50;35.28;;;15.27;;
20828;SDS011;10575;50.124;8.582;2023-03-01T07:25:16;36.08;;;15.75;;
20828;SDS011;10575;50.124;8.582;2023-03-01T07:27:42;33.90;;;15.15;;
20828;SDS011;10575;50.124;8.582;2023-03-01T07:30:07;31.38;;;14.60;;
20828;SDS011;10575;50.124;8.582;2023-03-01T07:32:34;32.63;;;15.90;;
20828;SDS011;10575;50.124;8.582;2023-03-01T07:35:00;31.83;;;14.80;;
20828;SDS011;10575;50.124;8.582;2023-03-01T07:37:25;32.33;;;15.10;;
20828;SDS011;10575;50.124;8.582;2023-03-01T07:39:51;32.92;;;14.57;;
20828;SDS011;10575;50.124;8.582;2023-03-01T07:42:16;32.50;;;15.40;;
20828;SDS011;10575;50.124;8.582;2023-03-01T07:44:41;33.55;;;14.85;;
20828;SDS011;10575;50.124;8.582;2023-03-01T07:47:07;30.70;;;14.98;;
20828;SDS011;10575;50.124;8.582;2023-03-01T07:49:33;28.15;;;13.75;;
20828;SDS011;10575;50.124;8.582;2023-03-01T07:51:58;40.47;;;14.80;;
20828;SDS011;10575;50.124;8.582;2023-03-01T07:54:24;31.15;;;14.20;;
20828;SDS011;10575;50.124;8.582;2023-03-01T07:56:51;32.28;;;14.70;;
20828;SDS011;10575;50.124;8.582;2023-03-01T07:59:16;32.15;;;14.82;;
20828;SDS011;10575;50.124;8.582;2023-03-01T08:01:42;36.08;;;15.70;;
20828;SDS011;10575;50.124;8.582;2023-03-01T08:04:08;34.55;;;14.60;;
20828;SDS011;10575;50.124;8.582;2023-03-01T08:06:34;34.50;;;15.27;;
20828;SDS011;10575;50.124;8.582;2023-03-01T08:09:00;34.00;;;14.98;;
20828;SDS011;10575;50.124;8.582;2023-03-01T08:11:26;31.95;;;15.20;;
20828;SDS011;10575;50.124;8.582;2023-03-01T08:13:53;29.95;;;14.10;;
20828;SDS011;10575;50.124;8.582;2023-03-01T08:16:19;35.00;;;15.93;;
20828;SDS011;10575;50.124;8.582;2023-03-01T08:18:44;30.13;;;14.65;;
20828;SDS011;10575;50.124;8.582;2023-03-01T08:21:11;34.33;;;15.43;;
20828;SDS011;10575;50.124;8.582;2023-03-01T08:23:39;31.85;;;15.80;;
20828;SDS011;10575;50.124;8.582;2023-03-01T08:26:07;30.98;;;15.45;;
20828;SDS011;10575;50.124;8.582;2023-03-01T08:28:34;29.02;;;14.63;;
20828;SDS011;10575;50.124;8.582;2023-03-01T08:31:00;33.67;;;15.63;;
20828;SDS011;10575;50.124;8.582;2023-03-01T08:33:26;34.10;;;15.82;;
20828;SDS011;10575;50.124;8.582;2023-03-01T08:35:51;31.45;;;15.60;;
20828;SDS011;10575;50.124;8.582;2023-03-01T08:38:17;30.88;;;15.82;;
20828;SDS011;10575;50.124;8.582;2023-03-01T08:40:42;32.70;;;14.85;;
20828;SDS011;10575;50.124;8.582;2023-03-01T08:43:08;28.50;;;15.40;;
20828;SDS011;10575;50.124;8.582;2023-03-01T08:45:33;34.72;;;16.08;;
20828;SDS011;10575;50.124;8.582;2023-03-01T08:47:59;27.30;;;16.15;;
20828;SDS011;10575;50.124;8.582;2023-03-01T08:50:25;29.67;;;15.48;;
20828;SDS011;10575;50.124;8.582;2023-03-01T08:52:50;27.63;;;14.13;;
20828;SDS011;10575;50.124;8.582;2023-03-01T08:55:16;28.20;;;15.00;;
20828;SDS011;10575;50.124;8.582;2023-03-01T08:57:42;26.85;;;15.20;;
20828;SDS011;10575;50.124;8.582;2023-03-01T09:00:08;27.17;;;15.07;;
20828;SDS011;10575;50.124;8.582;2023-03-01T09:02:36;27.73;;;14.85;;
20828;SDS011;10575;50.124;8.582;2023-03-01T09:05:01;28.10;;;14.75;;
20828;SDS011;10575;50.124;8.582;2023-03-01T09:07:27;26.02;;;15.77;;
20828;SDS011;10575;50.124;8.582;2023-03-01T09:09:53;24.63;;;14.43;;
20828;SDS011;10575;50.124;8.582;2023-03-01T09:12:20;24.50;;;14.80;;
20828;SDS011;10575;50.124;8.582;2023-03-01T09:14:46;24.25;;;14.82;;
20828;SDS011;10575;50.124;8.582;2023-03-01T09:17:11;25.58;;;14.85;;
20828;SDS011;10575;50.124;8.582;2023-03-01T09:19:37;26.48;;;15.43;;
20828;SDS011;10575;50.124;8.582;2023-03-01T09:22:03;22.63;;;14.50;;
20828;SDS011;10575;50.124;8.582;2023-03-01T09:24:29;28.60;;;14.65;;
20828;SDS011;10575;50.124;8.582;2023-03-01T09:26:55;35.67;;;15.90;;
20828;SDS011;10575;50.124;8.582;2023-03-01T09:29:21;25.90;;;15.65;;
20828;SDS011;10575;50.124;8.582;2023-03-01T09:31:47;22.65;;;14.98;;
20828;SDS011;10575;50.124;8.582;2023-03-01T09:34:13;26.05;;;15.07;;
20828;SDS011;10575;50.124;8.582;2023-03-01T09:36:41;26.77;;;14.70;;
20828;SDS011;10575;50.124;8.582;2023-03-01T09:39:06;28.42;;;15.73;;
20828;SDS011;10575;50.124;8.582;2023-03-01T09:41:46;24.17;;;14.88;;
20828;SDS011;10575;50.124;8.582;2023-03-01T09:46:52;30.73;;;15.40;;
20828;SDS011;10575;50.124;8.582;2023-03-01T09:49:19;29.17;;;15.25;;
20828;SDS011;10575;50.124;8.582;2023-03-01T09:51:54;28.13;;;14.63;;
20828;SDS011;10575;50.124;8.582;2023-03-01T09:54:38;32.05;;;16.40;;
20828;SDS011;10575;50.124;8.582;2023-03-01T10:05:42;31.02;;;15.25;;
20828;SDS011;10575;50.124;8.582;2023-03-01T10:11:15;26.33;;;13.88;;
20828;SDS011;10575;50.124;8.582;2023-03-01T10:13:57;31.55;;;14.82;;
20828;SDS011;10575;50.124;8.582;2023-03-01T10:16:37;31.35;;;15.52;;
20828;SDS011;10575;50.124;8.582;2023-03-01T10:19:14;29.10;;;14.45;;
20828;SDS011;10575;50.124;8.582;2023-03-01T10:21:54;31.10;;;15.10;;
20828;SDS011;10575;50.124;8.582;2023-03-01T10:24:25;31.30;;;15.23;;
20828;SDS011;10575;50.124;8.582;2023-03-01T10:26:56;34.28;;;16.13;;
20828;SDS011;10575;50.124;8.582;2023-03-01T10:29:53;28.75;;;15.68;;
20828;SDS011;10575;50.124;8.582;2023-03-01T10:32:26;30.35;;;14.95;;
20828;SDS011;10575;50.124;8.582;2023-03-01T10:34:52;31.60;;;14.90;;
20828;SDS011;10575;50.124;8.582;2023-03-01T10:37:18;54.20;;;15.60;;
20828;SDS011;10575;50.124;8.582;2023-03-01T10:42:34;28.65;;;15.07;;
20828;SDS011;10575;50.124;8.582;2023-03-01T10:47:52;32.65;;;15.90;;
20828;SDS011;10575;50.124;8.582;2023-03-01T10:50:34;26.23;;;14.18;;
20828;SDS011;10575;50.124;8.582;2023-03-01T10:53:02;29.27;;;14.55;;
20828;SDS011;10575;50.124;8.582;2023-03-01T10:55:36;30.50;;;15.23;;
20828;SDS011;10575;50.124;8.582;2023-03-01T10:58:37;31.23;;;16.10;;
20828;SDS011;10575;50.124;8.582;2023-03-01T11:00:56;31.45;;;15.85;;
20828;SDS011;10575;50.124;8.582;2023-03-01T11:03:27;31.33;;;14.75;;
20828;SDS011;10575;50.124;8.582;2023-03-01T11:05:55;29.15;;;15.23;;
20828;SDS011;10575;50.124;8.582;2023-03-01T11:08:57;28.30;;;14.30;;
20828;SDS011;10575;50.124;8.582;2023-03-01T11:16:37;30.20;;;14.73;;
20828;SDS011;10575;50.124;8.582;2023-03-01T11:21:41;28.15;;;14.40;;
20828;SDS011;10575;50.124;8.582;2023-03-01T11:24:15;30.52;;;14.10;;
20828;SDS011;10575;50.124;8.582;2023-03-01T11:26:43;27.65;;;14.20;;
20828;SDS011;10575;50.124;8.582;2023-03-01T11:29:26;29.90;;;13.77;;
20828;SDS011;10575;50.124;8.582;2023-03-01T11:31:52;31.50;;;14.95;;
20828;SDS011;10575;50.124;8.582;2023-03-01T11:34:32;25.48;;;13.68;;
20828;SDS011;10575;50.124;8.582;2023-03-01T11:37:07;27.70;;;14.77;;
20828;SDS011;10575;50.124;8.582;2023-03-01T11:39:53;27.95;;;13.48;;
20828;SDS011;10575;50.124;8.582;2023-03-01T11:42:28;27.27;;;12.95;;
20828;SDS011;10575;50.124;8.582;2023-03-01T11:45:06;29.38;;;13.38;;
20828;SDS011;10575;50.124;8.582;2023-03-01T11:50:35;27.70;;;13.63;;
20828;SDS011;10575;50.124;8.582;2023-03-01T11:59:02;26.63;;;13.45;;
20828;SDS011;10575;50.124;8.582;2023-03-01T12:13:18;24.73;;;12.57;;
20828;SDS011;10575;50.124;8.582;2023-03-01T12:22:03;25.65;;;12.70;;
20828;SDS011;10575;50.124;8.582;2023-03-01T12:24:40;30.23;;;13.27;;
20828;SDS011;10575;50.124;8.582;2023-03-01T12:41:51;26.58;;;13.07;;
20828;SDS011;10575;50.124;8.582;2023-03-01T12:50:11;24.02;;;11.65;;
20828;SDS011;10575;50.124;8.582;2023-03-01T12:52:44;21.63;;;11.07;;
20828;SDS011;10575;50.124;8.582;2023-03-01T12:55:35;21.95;;;11.30;;
20828;SDS011;10575;50.124;8.582;2023-03-01T13:01:16;18.92;;;10.10;;
20828;SDS011;10575;50.124;8.582;2023-03-01T13:04:00;23.63;;;10.73;;
20828;SDS011;10575;50.124;8.582;2023-03-01T13:09:37;25.63;;;12.30;;
20828;SDS011;10575;50.124;8.582;2023-03-01T13:12:45;21.17;;;11.60;;
20828;SDS011;10575;50.124;8.582;2023-03-01T13:17:47;23.05;;;11.77;;
20828;SDS011;10575;50.124;8.582;2023-03-01T13:20:19;21.00;;;10.95;;
20828;SDS011;10575;50.124;8.582;2023-03-01T13:22:46;19.58;;;11.80;;
20828;SDS011;10575;50.124;8.582;2023-03-01T13:25:13;21.30;;;10.82;;
20828;SDS011;10575;50.124;8.582;2023-03-01T13:27:45;21.65;;;10.80;;
20828;SDS011;10575;50.124;8.582;2023-03-01T13:30:57;25.25;;;11.57;;
20828;SDS011;10575;50.124;8.582;2023-03-01T13:35:50;21.05;;;10.95;;
20828;SDS011;10575;50.124;8.582;2023-03-01T13:41:10;20.45;;;10.90;;
20828;SDS011;10575;50.124;8.582;2023-03-01T13:43:38;19.73;;;10.85;;
20828;SDS011;10575;50.124;8.582;2023-03-01T13:46:10;18.38;;;10.50;;
20828;SDS011;10575;50.124;8.582;2023-03-01T13:48:47;22.63;;;10.45;;
20828;SDS011;10575;50.124;8.582;2023-03-01T13:51:15;21.13;;;10.77;;
20828;SDS011;10575;50.124;8.582;2023-03-01T13:53:42;20.73;;;10.93;;
20828;SDS011;10575;50.124;8.582;2023-03-01T13:56:18;20.60;;;10.95;;
20828;SDS011;10575;50.124;8.582;2023-03-01T13:58:50;19.98;;;10.48;;
20828;SDS011;10575;50.124;8.582;2023-03-01T14:01:27;20.65;;;10.70;;
20828;SDS011;10575;50.124;8.582;2023-03-01T14:03:55;23.48;;;10.93;;
20828;SDS011;10575;50.124;8.582;2023-03-01T14:06:22;23.35;;;11.52;;
20828;SDS011;10575;50.124;8.582;2023-03-01T14:08:50;23.27;;;11.63;;
20828;SDS011;10575;50.124;8.582;2023-03-01T14:17:23;22.33;;;11.13;;
20828;SDS011;10575;50.124;8.582;2023-03-01T14:19:57;21.27;;;11.73;;
20828;SDS011;10575;50.124;8.582;2023-03-01T14:22:43;21.63;;;10.50;;
20828;SDS011;10575;50.124;8.582;2023-03-01T14:25:19;22.88;;;11.82;;
20828;SDS011;10575;50.124;8.582;2023-03-01T14:28:00;23.48;;;12.07;;
20828;SDS011;10575;50.124;8.582;2023-03-01T14:30:58;24.58;;;11.68;;
20828;SDS011;10575;50.124;8.582;2023-03-01T14:36:09;22.23;;;11.57;;
20828;SDS011;10575;50.124;8.582;2023-03-01T14:38:44;22.05;;;10.90;;
20828;SDS011;10575;50.124;8.582;2023-03-01T14:41:13;22.50;;;10.65;;
20828;SDS011;10575;50.124;8.582;2023-03-01T14:43:41;19.30;;;11.15;;
20828;SDS011;10575;50.124;8.582;2023-03-01T14:46:20;21.90;;;10.90;;
20828;SDS011;10575;50.124;8.582;2023-03-01T14:48:51;22.88;;;11.20;;
20828;SDS011;10575;50.124;8.582;2023-03-01T14:51:21;21.45;;;11.52;;
20828;SDS011;10575;50.124;8.582;2023-03-01T14:53:47;20.30;;;10.88;;
20828;SDS011;10575;50.124;8.582;2023-03-01T14:56:14;20.70;;;11.80;;
20828;SDS011;10575;50.124;8.582;2023-03-01T14:58:44;20.30;;;11.73;;
20828;SDS011;10575;50.124;8.582;2023-03-01T15:01:13;22.20;;;10.80;;
20828;SDS011;10575;50.124;8.582;2023-03-01T15:03:42;21.88;;;10.70;;
20828;SDS011;10575;50.124;8.582;2023-03-01T15:06:10;24.10;;;10.50;;
20828;SDS011;10575;50.124;8.582;2023-03-01T15:08:41;20.73;;;10.73;;
20828;SDS011;10575;50.124;8.582;2023-03-01T15:13:38;21.92;;;10.35;;
20828;SDS011;10575;50.124;8.582;2023-03-01T15:16:18;20.67;;;10.25;;
20828;SDS011;10575;50.124;8.582;2023-03-01T15:18:51;18.27;;;10.32;;
20828;SDS011;10575;50.124;8.582;2023-03-01T15:21:26;23.05;;;10.18;;
20828;SDS011;10575;50.124;8.582;2023-03-01T15:24:04;21.40;;;10.40;;
20828;SDS011;10575;50.124;8.582;2023-03-01T15:26:44;20.85;;;10.10;;
20828;SDS011;10575;50.124;8.582;2023-03-01T15:29:31;20.00;;;9.75;;
20828;SDS011;10575;50.124;8.582;2023-03-01T15:31:59;19.25;;;10.63;;
20828;SDS011;10575;50.124;8.582;2023-03-01T15:34:35;20.10;;;10.32;;
20828;SDS011;10575;50.124;8.582;2023-03-01T15:37:04;19.35;;;9.85;;
20828;SDS011;10575;50.124;8.582;2023-03-01T15:39:40;18.15;;;9.27;;
20828;SDS011;10575;50.124;8.582;2023-03-01T15:42:35;16.63;;;9.50;;
20828;SDS011;10575;50.124;8.582;2023-03-01T15:47:41;17.58;;;9.40;;
20828;SDS011;10575;50.124;8.582;2023-03-01T15:50:23;19.60;;;10.18;;
20828;SDS011;10575;50.124;8.582;2023-03-01T15:52:54;17.45;;;9.18;;
20828;SDS011;10575;50.124;8.582;2023-03-01T15:57:58;19.77;;;10.35;;
20828;SDS011;10575;50.124;8.582;2023-03-01T16:00:40;21.95;;;10.93;;
20828;SDS011;10575;50.124;8.582;2023-03-01T16:03:08;22.67;;;9.63;;
20828;SDS011;10575;50.124;8.582;2023-03-01T16:05:37;21.20;;;10.13;;
20828;SDS011;10575;50.124;8.582;2023-03-01T16:08:03;21.08;;;9.90;;
20828;SDS011;10575;50.124;8.582;2023-03-01T16:10:31;21.83;;;10.15;;
20828;SDS011;10575;50.124;8.582;2023-03-01T16:12:57;19.02;;;10.18;;
20828;SDS011;10575;50.124;8.582;2023-03-01T16:17:53;20.45;;;10.20;;
20828;SDS011;10575;50.124;8.582;2023-03-01T16:20:19;21.85;;;9.63;;
20828;SDS011;10575;50.124;8.582;2023-03-01T16:22:45;20.42;;;9.68;;
20828;SDS011;10575;50.124;8.582;2023-03-01T16:25:11;20.50;;;10.07;;
20828;SDS011;10575;50.124;8.582;2023-03-01T16:27:47;17.92;;;9.00;;
20828;SDS011;10575;50.124;8.582;2023-03-01T16:30:15;20.73;;;9.98;;